Nearby METAR Reports

 

KBDU - Boulder Muni, Colorado, USA
Distance from station: ESE 5mi, 9km
Updated: Mon, 20-Aug-2018 10:54am MDT
Haze, Clear
Haze, Clear
 Wind from ENE
Wind: ENE 5 mph , 7 km/h
Temperature: 63°F , 17°C
Dew Point: 50°F , 10°C
Humidity: 64%
Barometer: 30.29 inHg , 1025.7 hPa
Summary: Haze
Clouds: Clear
Visibility: 5 miles , 8 km
2018/08/20 16:54 KBDU 201654Z AUTO 07004KT 5SM HZ CLR 17/10 A3029 RMK AO2
KLMO - Longmont/Vbrand, Colorado, USA
Distance from station: NE 11mi, 18km
Updated: Sun, 19-Aug-2018 6:15am MDT
NOT Current
Mostly cloudy
Mostly cloudy
 Wind from SW
Wind: SW 3 mph , 6 km/h
Temperature: 52°F , 11°C
Dew Point: 50°F , 10°C
Humidity: 94%
Barometer: 30.20 inHg , 1022.7 hPa
Clouds: Mostly cloudy
Visibility: 10 miles , 16 km
Cloud details: Mostly cloudy 10000 ft
2018/08/19 12:15 KLMO 191215Z AUTO 23003KT 10SM BKN100 11/10 A3020 RMK AO2 T01100097
 
KEIK - Erie Muni, Colorado, USA
Distance from station: ESE 15mi, 24km
Updated: Mon, 20-Aug-2018 11:12am MDT
Haze, Clear
Haze, Clear
 Wind from calm
Wind: Calm
Temperature: 64°F , 18°C
Dew Point: 50°F , 10°C
Humidity: 60%
Barometer: 30.33 inHg , 1027.1 hPa
Summary: Haze
Clouds: Clear
Visibility: 4 miles , 6 km
2018/08/20 17:12 KEIK 201712Z AUTO 00000KT 4SM HZ CLR 18/10 A3033 RMK AO2 T01780100
KBJC - Broomfield/Jeffc, Colorado, USA
Distance from station: SE 17mi, 27km
Updated: Mon, 20-Aug-2018 10:45am MDT
Haze, Partly cloudy
Haze, Partly cloudy
 Wind from calm
Wind: Calm
Temperature: 63°F , 17°C
Dew Point: 50°F , 10°C
Humidity: 64%
Barometer: 30.31 inHg , 1026.4 hPa
Summary: Haze
Clouds: Partly cloudy
Visibility: 4 miles , 6 km
Cloud details: Partly cloudy 6000 ft
2018/08/20 16:45 KBJC 201645Z 00000KT 4SM HZ SCT060 17/10 A3031
 
KFNL - Ft Collins/Lovel, Colorado, USA
Distance from station: NNE 31mi, 50km
Updated: Mon, 20-Aug-2018 10:56am MDT
Haze, Clear
Haze, Clear
 Wind from S
Wind: S 6 mph , 9 km/h
Temperature: 61°F , 16°C
Dew Point: 48°F , 9°C
Humidity: 63%
Barometer: 30.29 inHg , 1025.7 hPa
Summary: Haze
Clouds: Clear
Visibility: 4 miles , 6 km
2018/08/20 16:56 KFNL 201656Z AUTO 18005KT 4SM HZ CLR 16/09 A3029 RMK AO2 SLP217 T01610094 PNO $
KDEN - Denver (dia), Colorado, USA
Distance from station: ESE 39mi, 62km
Updated: Mon, 20-Aug-2018 10:53am MDT
Haze, Clear
Haze, Clear
 Wind from E
Wind: E 5 mph , 7 km/h
Temperature: 63°F , 17°C
Dew Point: 48°F , 9°C
Humidity: 59%
Barometer: 30.30 inHg , 1026.1 hPa
Summary: Haze
Clouds: Clear
Visibility: 4 miles , 6 km
2018/08/20 16:53 KDEN 201653Z 10004KT 4SM HZ CLR 17/09 A3030 RMK AO2 SLP207 T01720094
 
KBKF - Buckley Angb/Den, Colorado, USA
Distance from station: SE 39mi, 63km
Updated: Mon, 20-Aug-2018 10:58am MDT
Clear
Clear
 Wind from SSW
Wind: SSW 3 mph , 6 km/h
Temperature: 63°F , 17°C
Dew Point: 52°F , 11°C
Humidity: 68%
Barometer: 30.31 inHg , 1026.4 hPa
Clouds: Clear
Visibility: 3 miles , 5 km
2018/08/20 16:58 KBKF 201658Z 20003KT 3SM CLR 17/11 A3031 RMK AO2A SLP213 T01700106
KAPA - Denver/Arapahoe, Colorado, USA
Distance from station: SE 43mi, 69km
Updated: Mon, 20-Aug-2018 10:53am MDT
Few Clouds
Few Clouds
 Wind from ESE
Wind: ESE 3 mph , 6 km/h
Temperature: 63°F , 17°C
Dew Point: 48°F , 9°C
Humidity: 59%
Barometer: 30.31 inHg , 1026.4 hPa
Clouds: Few Clouds
Visibility: 7 miles , 11 km
Cloud details: Few Clouds 20000 ft
2018/08/20 16:53 KAPA 201653Z 11003KT 7SM FEW200 17/09 A3031 RMK AO2 SLP218 T01720094
 
KGXY - Greeley/Weld, Colorado, USA
Distance from station: NE 45mi, 72km
Updated: Mon, 20-Aug-2018 10:56am MDT
Haze, Clear
Haze, Clear
 Wind from varies
Wind: varies 5 mph , 7 km/h
Temperature: 63°F , 17°C
Dew Point: 46°F , 8°C
Humidity: 56%
Barometer: 30.29 inHg , 1025.7 hPa
Summary: Haze
Clouds: Clear
Visibility: 5 miles , 8 km
2018/08/20 16:56 KGXY 201656Z AUTO VRB04KT 5SM HZ CLR 17/08 A3029 RMK AO2 SLP240 T01670083
KFTG - Denver F. Range, Colorado, USA
Distance from station: ESE 46mi, 73km
Updated: Mon, 20-Aug-2018 10:47am MDT
Haze, Clear
Haze, Clear
 Wind from calm
Wind: Calm
Temperature: 63°F , 17°C
Dew Point: 50°F , 10°C
Humidity: 64%
Barometer: 30.31 inHg , 1026.4 hPa
Summary: Haze
Clouds: Clear
Visibility: 3 miles , 5 km
2018/08/20 16:47 KFTG 201647Z 00000KT 3SM HZ SKC 17/10 A3031